sensor_id;sensor_type;location;lat;lon;timestamp;pressure;altitude;pressure_sealevel;temperature;humidity
64402;BME280;50724;42.376;23.768;2023-05-25T00:02:47;93126.69;;;12.09;100.00
64402;BME280;50724;42.376;23.768;2023-05-25T00:05:47;93128.84;;;12.05;100.00
64402;BME280;50724;42.376;23.768;2023-05-25T00:08:49;93128.94;;;11.89;100.00
64402;BME280;50724;42.376;23.768;2023-05-25T00:11:54;93129.56;;;11.99;100.00
64402;BME280;50724;42.376;23.768;2023-05-25T00:14:54;93122.97;;;12.03;100.00
64402;BME280;50724;42.376;23.768;2023-05-25T00:17:55;93120.75;;;12.15;100.00
64402;BME280;50724;42.376;23.768;2023-05-25T00:20:55;93118.50;;;12.12;100.00
64402;BME280;50724;42.376;23.768;2023-05-25T00:23:56;93117.84;;;12.10;100.00
64402;BME280;50724;42.376;23.768;2023-05-25T00:26:56;93125.06;;;12.08;100.00
64402;BME280;50724;42.376;23.768;2023-05-25T00:29:57;93124.41;;;12.06;100.00
64402;BME280;50724;42.376;23.768;2023-05-25T00:33:00;93129.78;;;12.12;100.00
64402;BME280;50724;42.376;23.768;2023-05-25T00:36:02;93126.47;;;12.18;99.92
64402;BME280;50724;42.376;23.768;2023-05-25T00:39:02;93135.63;;;12.00;100.00
64402;BME280;50724;42.376;23.768;2023-05-25T00:42:04;93129.81;;;11.82;100.00
64402;BME280;50724;42.376;23.768;2023-05-25T00:45:06;93132.94;;;11.77;100.00
64402;BME280;50724;42.376;23.768;2023-05-25T00:48:07;93136.09;;;11.72;100.00
64402;BME280;50724;42.376;23.768;2023-05-25T00:51:09;93135.56;;;11.77;100.00
64402;BME280;50724;42.376;23.768;2023-05-25T00:54:10;93131.13;;;11.86;100.00
64402;BME280;50724;42.376;23.768;2023-05-25T00:57:16;93128.13;;;11.58;100.00
64402;BME280;50724;42.376;23.768;2023-05-25T01:00:17;93130.31;;;11.46;100.00
64402;BME280;50724;42.376;23.768;2023-05-25T01:03:21;93131.94;;;11.47;100.00
64402;BME280;50724;42.376;23.768;2023-05-25T01:06:29;93138.13;;;11.54;100.00
64402;BME280;50724;42.376;23.768;2023-05-25T01:09:37;93131.50;;;11.28;100.00
64402;BME280;50724;42.376;23.768;2023-05-25T01:12:39;93130.88;;;11.26;100.00
64402;BME280;50724;42.376;23.768;2023-05-25T01:15:41;93135.13;;;11.27;100.00
64402;BME280;50724;42.376;23.768;2023-05-25T01:18:41;93136.59;;;11.21;100.00
64402;BME280;50724;42.376;23.768;2023-05-25T01:22:11;93135.91;;;11.35;100.00
64402;BME280;50724;42.376;23.768;2023-05-25T01:25:20;93132.13;;;11.38;100.00
64402;BME280;50724;42.376;23.768;2023-05-25T01:28:24;93136.81;;;11.12;100.00
64402;BME280;50724;42.376;23.768;2023-05-25T01:31:28;93135.66;;;11.14;100.00
64402;BME280;50724;42.376;23.768;2023-05-25T01:34:30;93138.13;;;10.99;100.00
64402;BME280;50724;42.376;23.768;2023-05-25T01:37:30;93132.22;;;11.14;100.00
64402;BME280;50724;42.376;23.768;2023-05-25T01:40:32;93134.72;;;10.91;100.00
64402;BME280;50724;42.376;23.768;2023-05-25T01:43:32;93130.97;;;11.01;100.00
64402;BME280;50724;42.376;23.768;2023-05-25T01:46:37;93126.84;;;11.07;100.00
64402;BME280;50724;42.376;23.768;2023-05-25T01:49:50;93124.44;;;10.89;100.00
64402;BME280;50724;42.376;23.768;2023-05-25T01:52:59;93130.97;;;10.93;100.00
64402;BME280;50724;42.376;23.768;2023-05-25T01:56:05;93127.22;;;10.88;100.00
64402;BME280;50724;42.376;23.768;2023-05-25T01:59:07;93136.72;;;10.89;100.00
64402;BME280;50724;42.376;23.768;2023-05-25T02:02:09;93134.38;;;11.02;100.00
64402;BME280;50724;42.376;23.768;2023-05-25T02:05:11;93132.75;;;11.01;100.00
64402;BME280;50724;42.376;23.768;2023-05-25T02:08:12;93137.50;;;10.97;100.00
64402;BME280;50724;42.376;23.768;2023-05-25T02:11:12;93136.19;;;10.93;100.00
64402;BME280;50724;42.376;23.768;2023-05-25T02:14:14;93137.16;;;11.00;100.00
64402;BME280;50724;42.376;23.768;2023-05-25T02:17:15;93129.66;;;10.97;100.00
64402;BME280;50724;42.376;23.768;2023-05-25T02:20:18;93133.88;;;11.06;100.00
64402;BME280;50724;42.376;23.768;2023-05-25T02:23:19;93139.91;;;11.15;100.00
64402;BME280;50724;42.376;23.768;2023-05-25T02:26:19;93141.06;;;11.13;100.00
64402;BME280;50724;42.376;23.768;2023-05-25T02:29:20;93144.50;;;11.05;100.00
64402;BME280;50724;42.376;23.768;2023-05-25T02:32:21;93147.97;;;10.97;100.00
64402;BME280;50724;42.376;23.768;2023-05-25T02:35:21;93146.81;;;11.00;100.00
64402;BME280;50724;42.376;23.768;2023-05-25T02:38:22;93142.59;;;10.91;100.00
64402;BME280;50724;42.376;23.768;2023-05-25T02:41:31;93144.72;;;10.87;100.00
64402;BME280;50724;42.376;23.768;2023-05-25T02:44:31;93146.03;;;10.91;100.00
64402;BME280;50724;42.376;23.768;2023-05-25T02:47:32;93159.91;;;11.00;100.00
64402;BME280;50724;42.376;23.768;2023-05-25T02:50:32;93155.66;;;10.99;100.00
64402;BME280;50724;42.376;23.768;2023-05-25T02:53:33;93161.41;;;10.94;100.00
64402;BME280;50724;42.376;23.768;2023-05-25T02:56:33;93158.78;;;10.94;100.00
64402;BME280;50724;42.376;23.768;2023-05-25T02:59:33;93157.75;;;11.12;100.00
64402;BME280;50724;42.376;23.768;2023-05-25T03:02:34;93161.38;;;11.02;100.00
64402;BME280;50724;42.376;23.768;2023-05-25T03:05:34;93167.72;;;11.16;100.00
64402;BME280;50724;42.376;23.768;2023-05-25T03:08:35;93166.13;;;10.99;100.00
64402;BME280;50724;42.376;23.768;2023-05-25T03:11:35;93171.03;;;10.94;100.00
64402;BME280;50724;42.376;23.768;2023-05-25T03:14:35;93177.06;;;11.02;100.00
64402;BME280;50724;42.376;23.768;2023-05-25T03:17:36;93176.28;;;10.94;100.00
64402;BME280;50724;42.376;23.768;2023-05-25T03:20:36;93177.88;;;11.11;100.00
64402;BME280;50724;42.376;23.768;2023-05-25T03:23:37;93181.28;;;11.20;100.00
64402;BME280;50724;42.376;23.768;2023-05-25T03:26:37;93183.41;;;11.24;100.00
64402;BME280;50724;42.376;23.768;2023-05-25T03:29:38;93178.81;;;11.34;100.00
64402;BME280;50724;42.376;23.768;2023-05-25T03:32:38;93186.00;;;11.32;100.00
64402;BME280;50724;42.376;23.768;2023-05-25T03:35:39;93182.97;;;11.51;100.00
64402;BME280;50724;42.376;23.768;2023-05-25T03:38:41;93186.72;;;11.65;100.00
64402;BME280;50724;42.376;23.768;2023-05-25T03:41:41;93191.34;;;11.47;100.00
64402;BME280;50724;42.376;23.768;2023-05-25T03:44:43;93189.00;;;11.68;100.00
64402;BME280;50724;42.376;23.768;2023-05-25T03:47:43;93190.13;;;11.65;100.00
64402;BME280;50724;42.376;23.768;2023-05-25T03:50:44;93195.94;;;11.92;100.00
64402;BME280;50724;42.376;23.768;2023-05-25T03:53:44;93186.78;;;11.88;100.00
64402;BME280;50724;42.376;23.768;2023-05-25T03:56:45;93196.16;;;12.13;100.00
64402;BME280;50724;42.376;23.768;2023-05-25T03:59:45;93200.75;;;12.33;99.45
64402;BME280;50724;42.376;23.768;2023-05-25T04:02:46;93201.88;;;12.62;98.57
64402;BME280;50724;42.376;23.768;2023-05-25T04:05:46;93200.69;;;13.09;97.05
64402;BME280;50724;42.376;23.768;2023-05-25T04:08:47;93210.50;;;13.45;93.40
64402;BME280;50724;42.376;23.768;2023-05-25T04:11:47;93200.44;;;13.92;93.21
64402;BME280;50724;42.376;23.768;2023-05-25T04:14:47;93199.22;;;15.08;87.31
64402;BME280;50724;42.376;23.768;2023-05-25T04:17:48;93204.91;;;16.02;79.09
64402;BME280;50724;42.376;23.768;2023-05-25T04:20:48;93208.69;;;17.07;75.26
64402;BME280;50724;42.376;23.768;2023-05-25T04:23:49;93216.44;;;17.61;76.73
64402;BME280;50724;42.376;23.768;2023-05-25T04:26:49;93212.16;;;17.47;75.44
64402;BME280;50724;42.376;23.768;2023-05-25T04:29:49;93215.22;;;16.37;76.67
64402;BME280;50724;42.376;23.768;2023-05-25T04:32:50;93216.66;;;16.40;76.65
64402;BME280;50724;42.376;23.768;2023-05-25T04:35:50;93229.94;;;16.12;78.90
64402;BME280;50724;42.376;23.768;2023-05-25T04:38:53;93229.88;;;15.65;81.66
64402;BME280;50724;42.376;23.768;2023-05-25T04:41:54;93226.19;;;15.59;84.02
64402;BME280;50724;42.376;23.768;2023-05-25T04:44:56;93228.53;;;14.99;85.72
64402;BME280;50724;42.376;23.768;2023-05-25T04:47:58;93223.81;;;15.15;87.02
64402;BME280;50724;42.376;23.768;2023-05-25T04:51:00;93227.94;;;16.62;81.89
64402;BME280;50724;42.376;23.768;2023-05-25T04:54:04;93217.16;;;19.34;72.00
64402;BME280;50724;42.376;23.768;2023-05-25T04:57:05;93228.09;;;21.55;59.35
64402;BME280;50724;42.376;23.768;2023-05-25T05:00:05;93232.09;;;22.96;54.71
64402;BME280;50724;42.376;23.768;2023-05-25T05:03:08;93227.56;;;24.20;48.27
64402;BME280;50724;42.376;23.768;2023-05-25T05:06:10;93230.13;;;25.61;44.29
64402;BME280;50724;42.376;23.768;2023-05-25T05:09:10;93237.59;;;26.65;40.06
64402;BME280;50724;42.376;23.768;2023-05-25T05:12:11;93236.56;;;26.66;37.36
64402;BME280;50724;42.376;23.768;2023-05-25T05:15:11;93237.44;;;26.34;39.14
64402;BME280;50724;42.376;23.768;2023-05-25T05:18:21;93230.56;;;25.26;42.54
64402;BME280;50724;42.376;23.768;2023-05-25T05:21:21;93229.59;;;24.13;46.49
64402;BME280;50724;42.376;23.768;2023-05-25T05:24:21;93226.97;;;23.35;49.32
64402;BME280;50724;42.376;23.768;2023-05-25T05:27:22;93236.53;;;22.79;51.50
64402;BME280;50724;42.376;23.768;2023-05-25T05:30:22;93239.06;;;22.11;52.19
64402;BME280;50724;42.376;23.768;2023-05-25T05:33:23;93234.41;;;21.95;51.34
64402;BME280;50724;42.376;23.768;2023-05-25T05:36:23;93231.88;;;21.88;53.22
64402;BME280;50724;42.376;23.768;2023-05-25T05:39:25;93231.31;;;21.86;56.10
64402;BME280;50724;42.376;23.768;2023-05-25T05:42:25;93232.88;;;21.76;56.98
64402;BME280;50724;42.376;23.768;2023-05-25T05:45:26;93226.88;;;21.28;57.41
64402;BME280;50724;42.376;23.768;2023-05-25T05:48:26;93229.06;;;20.71;58.81
64402;BME280;50724;42.376;23.768;2023-05-25T05:51:27;93229.03;;;21.07;57.11
64402;BME280;50724;42.376;23.768;2023-05-25T05:54:27;93232.69;;;20.58;59.99
64402;BME280;50724;42.376;23.768;2023-05-25T05:57:27;93227.78;;;20.92;60.46
64402;BME280;50724;42.376;23.768;2023-05-25T06:00:28;93226.47;;;20.83;59.12
64402;BME280;50724;42.376;23.768;2023-05-25T06:03:28;93237.19;;;20.76;61.44
64402;BME280;50724;42.376;23.768;2023-05-25T06:06:29;93233.41;;;20.84;61.69
64402;BME280;50724;42.376;23.768;2023-05-25T06:09:30;93231.59;;;21.67;55.90
64402;BME280;50724;42.376;23.768;2023-05-25T06:12:30;93232.81;;;22.06;52.35
64402;BME280;50724;42.376;23.768;2023-05-25T06:15:30;93229.34;;;22.05;52.65
64402;BME280;50724;42.376;23.768;2023-05-25T06:18:31;93227.69;;;22.04;51.78
64402;BME280;50724;42.376;23.768;2023-05-25T06:21:32;93232.06;;;22.68;52.21
64402;BME280;50724;42.376;23.768;2023-05-25T06:24:32;93235.00;;;22.95;51.30
64402;BME280;50724;42.376;23.768;2023-05-25T06:27:33;93239.03;;;22.69;53.12
64402;BME280;50724;42.376;23.768;2023-05-25T06:30:33;93234.59;;;22.75;54.38
64402;BME280;50724;42.376;23.768;2023-05-25T06:33:34;93240.34;;;23.23;49.29
64402;BME280;50724;42.376;23.768;2023-05-25T06:36:34;93241.50;;;22.87;50.22
64402;BME280;50724;42.376;23.768;2023-05-25T06:39:35;93239.44;;;23.17;49.17
64402;BME280;50724;42.376;23.768;2023-05-25T06:42:36;93236.06;;;22.82;50.82
64402;BME280;50724;42.376;23.768;2023-05-25T06:45:37;93238.03;;;23.15;51.75
64402;BME280;50724;42.376;23.768;2023-05-25T06:48:37;93234.59;;;23.03;51.63
64402;BME280;50724;42.376;23.768;2023-05-25T06:51:38;93234.28;;;23.27;52.38
64402;BME280;50724;42.376;23.768;2023-05-25T06:54:38;93233.88;;;23.80;49.34
64402;BME280;50724;42.376;23.768;2023-05-25T06:57:39;93231.38;;;23.90;49.30
64402;BME280;50724;42.376;23.768;2023-05-25T07:00:40;93226.66;;;23.64;48.60
64402;BME280;50724;42.376;23.768;2023-05-25T07:03:41;93238.03;;;22.87;50.79
64402;BME280;50724;42.376;23.768;2023-05-25T07:06:42;93231.94;;;22.51;50.02
64402;BME280;50724;42.376;23.768;2023-05-25T07:09:42;93234.13;;;22.78;47.22
64402;BME280;50724;42.376;23.768;2023-05-25T07:12:43;93226.31;;;23.16;46.28
64402;BME280;50724;42.376;23.768;2023-05-25T07:15:43;93227.28;;;23.38;45.78
64402;BME280;50724;42.376;23.768;2023-05-25T07:18:44;93228.09;;;22.59;44.79
64402;BME280;50724;42.376;23.768;2023-05-25T07:21:44;93230.94;;;22.41;48.11
64402;BME280;50724;42.376;23.768;2023-05-25T07:24:45;93230.03;;;22.01;46.71
64402;BME280;50724;42.376;23.768;2023-05-25T07:27:49;93235.31;;;22.98;48.22
64402;BME280;50724;42.376;23.768;2023-05-25T07:30:49;93233.72;;;22.23;50.17
64402;BME280;50724;42.376;23.768;2023-05-25T07:33:50;93237.22;;;22.00;50.20
64402;BME280;50724;42.376;23.768;2023-05-25T07:36:50;93234.19;;;21.32;52.76
64402;BME280;50724;42.376;23.768;2023-05-25T07:39:50;93238.69;;;20.72;52.41
64402;BME280;50724;42.376;23.768;2023-05-25T07:42:51;93239.41;;;20.79;54.98
64402;BME280;50724;42.376;23.768;2023-05-25T07:45:53;93236.41;;;20.58;55.84
64402;BME280;50724;42.376;23.768;2023-05-25T07:48:53;93232.78;;;20.34;57.20
64402;BME280;50724;42.376;23.768;2023-05-25T07:51:55;93230.38;;;20.32;57.51
64402;BME280;50724;42.376;23.768;2023-05-25T07:54:55;93228.22;;;20.41;57.87
64402;BME280;50724;42.376;23.768;2023-05-25T07:57:56;93236.03;;;20.36;59.18
64402;BME280;50724;42.376;23.768;2023-05-25T08:00:56;93231.53;;;20.54;57.49
64402;BME280;50724;42.376;23.768;2023-05-25T08:03:57;93232.38;;;20.85;56.92
64402;BME280;50724;42.376;23.768;2023-05-25T08:06:57;93238.28;;;21.05;56.55
64402;BME280;50724;42.376;23.768;2023-05-25T08:09:58;93240.19;;;20.80;58.15
64402;BME280;50724;42.376;23.768;2023-05-25T08:12:58;93233.47;;;20.05;60.12
64402;BME280;50724;42.376;23.768;2023-05-25T08:16:07;93233.69;;;20.46;59.66
64402;BME280;50724;42.376;23.768;2023-05-25T08:19:08;93243.06;;;20.48;59.89
64402;BME280;50724;42.376;23.768;2023-05-25T08:22:08;93237.69;;;19.94;61.26
64402;BME280;50724;42.376;23.768;2023-05-25T08:25:09;93241.53;;;19.73;60.88
64402;BME280;50724;42.376;23.768;2023-05-25T08:28:10;93245.63;;;19.94;62.65
64402;BME280;50724;42.376;23.768;2023-05-25T08:31:10;93251.41;;;19.35;62.95
64402;BME280;50724;42.376;23.768;2023-05-25T08:34:11;93244.44;;;19.09;66.65
64402;BME280;50724;42.376;23.768;2023-05-25T08:37:11;93247.41;;;18.88;67.96
64402;BME280;50724;42.376;23.768;2023-05-25T08:40:15;93256.13;;;18.58;66.74
64402;BME280;50724;42.376;23.768;2023-05-25T08:43:16;93259.81;;;18.50;67.80
64402;BME280;50724;42.376;23.768;2023-05-25T08:46:29;93257.06;;;18.19;64.54
64402;BME280;50724;42.376;23.768;2023-05-25T08:49:37;93256.94;;;17.81;60.88
64402;BME280;50724;42.376;23.768;2023-05-25T08:52:38;93260.19;;;17.76;63.52
64402;BME280;50724;42.376;23.768;2023-05-25T08:55:42;93264.84;;;17.42;66.18
64402;BME280;50724;42.376;23.768;2023-05-25T08:58:58;93256.69;;;17.50;71.22
64402;BME280;50724;42.376;23.768;2023-05-25T09:05:41;93261.63;;;17.79;68.49
64402;BME280;50724;42.376;23.768;2023-05-25T09:08:43;93267.91;;;17.84;71.03
64402;BME280;50724;42.376;23.768;2023-05-25T09:11:44;93262.63;;;17.71;72.55
64402;BME280;50724;42.376;23.768;2023-05-25T09:14:45;93265.25;;;17.98;66.43
64402;BME280;50724;42.376;23.768;2023-05-25T09:17:47;93259.97;;;18.68;65.00
64402;BME280;50724;42.376;23.768;2023-05-25T09:20:47;93250.31;;;19.49;63.52
64402;BME280;50724;42.376;23.768;2023-05-25T09:23:47;93249.66;;;20.76;60.00
64402;BME280;50724;42.376;23.768;2023-05-25T09:26:49;93249.66;;;21.65;49.11
64402;BME280;50724;42.376;23.768;2023-05-25T09:29:50;93246.47;;;22.09;49.20
64402;BME280;50724;42.376;23.768;2023-05-25T09:32:50;93241.91;;;22.44;47.89
64402;BME280;50724;42.376;23.768;2023-05-25T09:35:51;93253.66;;;22.32;44.89
64402;BME280;50724;42.376;23.768;2023-05-25T09:38:52;93247.84;;;22.35;43.45
64402;BME280;50724;42.376;23.768;2023-05-25T09:41:53;93245.03;;;22.41;46.72
64402;BME280;50724;42.376;23.768;2023-05-25T09:44:54;93246.00;;;22.24;45.94
64402;BME280;50724;42.376;23.768;2023-05-25T09:47:55;93250.41;;;21.31;46.47
64402;BME280;50724;42.376;23.768;2023-05-25T09:50:55;93251.09;;;22.02;46.94
64402;BME280;50724;42.376;23.768;2023-05-25T09:53:56;93252.38;;;22.23;46.82
64402;BME280;50724;42.376;23.768;2023-05-25T09:57:02;93255.22;;;21.75;45.78
64402;BME280;50724;42.376;23.768;2023-05-25T10:00:11;93248.91;;;22.11;43.61
64402;BME280;50724;42.376;23.768;2023-05-25T10:03:12;93253.72;;;21.79;46.49
64402;BME280;50724;42.376;23.768;2023-05-25T10:06:14;93247.13;;;22.39;45.90
64402;BME280;50724;42.376;23.768;2023-05-25T10:09:17;93254.91;;;23.04;46.93
64402;BME280;50724;42.376;23.768;2023-05-25T10:12:18;93254.56;;;23.28;48.30
64402;BME280;50724;42.376;23.768;2023-05-25T10:15:21;93261.16;;;22.46;47.27
64402;BME280;50724;42.376;23.768;2023-05-25T10:18:25;93241.16;;;21.33;51.44
64402;BME280;50724;42.376;23.768;2023-05-25T10:21:29;93249.50;;;20.89;53.61
64402;BME280;50724;42.376;23.768;2023-05-25T10:24:34;93249.25;;;20.42;51.84
64402;BME280;50724;42.376;23.768;2023-05-25T10:27:43;93253.69;;;20.06;52.80
64402;BME280;50724;42.376;23.768;2023-05-25T10:30:46;93244.97;;;19.25;58.53
64402;BME280;50724;42.376;23.768;2023-05-25T10:33:47;93257.69;;;18.72;62.58
64402;BME280;50724;42.376;23.768;2023-05-25T10:36:48;93253.13;;;18.85;65.47
64402;BME280;50724;42.376;23.768;2023-05-25T10:39:48;93255.50;;;18.62;68.74
64402;BME280;50724;42.376;23.768;2023-05-25T10:42:49;93259.75;;;17.99;70.26
64402;BME280;50724;42.376;23.768;2023-05-25T10:45:50;93262.41;;;17.86;73.31
64402;BME280;50724;42.376;23.768;2023-05-25T10:48:51;93260.53;;;18.06;72.98
64402;BME280;50724;42.376;23.768;2023-05-25T10:51:57;93260.06;;;18.29;69.67
64402;BME280;50724;42.376;23.768;2023-05-25T10:54:59;93258.88;;;18.18;70.94
64402;BME280;50724;42.376;23.768;2023-05-25T10:58:14;93258.84;;;18.38;69.52
64402;BME280;50724;42.376;23.768;2023-05-25T11:01:15;93250.03;;;18.95;65.88
64402;BME280;50724;42.376;23.768;2023-05-25T11:04:15;93240.56;;;18.74;65.84
64402;BME280;50724;42.376;23.768;2023-05-25T11:07:16;93229.19;;;19.05;63.64
64402;BME280;50724;42.376;23.768;2023-05-25T11:13:48;93235.53;;;19.29;63.75
64402;BME280;50724;42.376;23.768;2023-05-25T11:17:05;93231.47;;;19.57;62.63
64402;BME280;50724;42.376;23.768;2023-05-25T11:20:20;93232.19;;;19.71;62.90
64402;BME280;50724;42.376;23.768;2023-05-25T11:23:23;93225.88;;;19.09;61.59
64402;BME280;50724;42.376;23.768;2023-05-25T11:26:25;93233.19;;;19.14;62.03
64402;BME280;50724;42.376;23.768;2023-05-25T11:29:29;93233.78;;;19.72;60.58
64402;BME280;50724;42.376;23.768;2023-05-25T11:32:30;93226.63;;;19.72;59.65
64402;BME280;50724;42.376;23.768;2023-05-25T11:35:30;93226.16;;;20.25;58.97
64402;BME280;50724;42.376;23.768;2023-05-25T11:38:43;93227.41;;;20.22;57.70
64402;BME280;50724;42.376;23.768;2023-05-25T11:41:49;93218.25;;;19.75;59.50
64402;BME280;50724;42.376;23.768;2023-05-25T11:44:50;93222.00;;;19.68;57.50
64402;BME280;50724;42.376;23.768;2023-05-25T11:47:52;93225.13;;;19.83;56.53
64402;BME280;50724;42.376;23.768;2023-05-25T11:51:05;93224.06;;;19.66;59.16
64402;BME280;50724;42.376;23.768;2023-05-25T11:54:06;93218.47;;;19.74;59.50
64402;BME280;50724;42.376;23.768;2023-05-25T11:57:17;93222.09;;;19.79;57.96
64402;BME280;50724;42.376;23.768;2023-05-25T12:00:24;93216.19;;;19.77;56.39
64402;BME280;50724;42.376;23.768;2023-05-25T12:03:29;93210.53;;;20.10;58.68
64402;BME280;50724;42.376;23.768;2023-05-25T12:06:31;93208.28;;;20.14;55.56
64402;BME280;50724;42.376;23.768;2023-05-25T12:09:39;93199.06;;;20.34;54.63
64402;BME280;50724;42.376;23.768;2023-05-25T12:12:40;93201.78;;;20.46;52.88
64402;BME280;50724;42.376;23.768;2023-05-25T12:15:41;93190.69;;;20.97;52.31
64402;BME280;50724;42.376;23.768;2023-05-25T12:18:43;93186.19;;;21.50;50.44
64402;BME280;50724;42.376;23.768;2023-05-25T12:21:44;93187.66;;;22.11;47.73
64402;BME280;50724;42.376;23.768;2023-05-25T12:24:44;93181.88;;;22.42;47.33
64402;BME280;50724;42.376;23.768;2023-05-25T12:27:45;93186.41;;;22.53;45.61
64402;BME280;50724;42.376;23.768;2023-05-25T12:30:45;93187.09;;;22.48;48.84
64402;BME280;50724;42.376;23.768;2023-05-25T12:33:46;93182.47;;;22.44;44.96
64402;BME280;50724;42.376;23.768;2023-05-25T12:36:54;93174.66;;;22.94;44.92
64402;BME280;50724;42.376;23.768;2023-05-25T12:39:55;93184.59;;;22.19;45.29
64402;BME280;50724;42.376;23.768;2023-05-25T12:42:56;93170.84;;;21.99;45.57
64402;BME280;50724;42.376;23.768;2023-05-25T12:45:57;93175.25;;;21.93;46.85
64402;BME280;50724;42.376;23.768;2023-05-25T12:48:59;93162.94;;;21.46;46.75
64402;BME280;50724;42.376;23.768;2023-05-25T12:52:01;93169.19;;;21.63;46.77
64402;BME280;50724;42.376;23.768;2023-05-25T12:55:28;93161.09;;;22.16;48.19
64402;BME280;50724;42.376;23.768;2023-05-25T12:58:29;93150.06;;;22.75;45.55
64402;BME280;50724;42.376;23.768;2023-05-25T13:01:29;93151.19;;;23.24;42.77
64402;BME280;50724;42.376;23.768;2023-05-25T13:04:30;93152.25;;;23.23;41.88
64402;BME280;50724;42.376;23.768;2023-05-25T13:07:31;93149.84;;;22.93;43.53
64402;BME280;50724;42.376;23.768;2023-05-25T13:10:32;93150.09;;;23.70;43.22
64402;BME280;50724;42.376;23.768;2023-05-25T13:13:32;93147.56;;;23.30;45.64
64402;BME280;50724;42.376;23.768;2023-05-25T13:16:33;93141.94;;;23.60;44.08
64402;BME280;50724;42.376;23.768;2023-05-25T13:19:33;93151.13;;;23.85;42.88
64402;BME280;50724;42.376;23.768;2023-05-25T13:22:34;93142.16;;;22.80;45.89
64402;BME280;50724;42.376;23.768;2023-05-25T13:25:34;93147.66;;;23.18;46.87
64402;BME280;50724;42.376;23.768;2023-05-25T13:28:35;93151.03;;;22.57;46.77
64402;BME280;50724;42.376;23.768;2023-05-25T13:31:36;93149.06;;;22.02;47.02
64402;BME280;50724;42.376;23.768;2023-05-25T13:34:36;93139.06;;;22.32;47.51
64402;BME280;50724;42.376;23.768;2023-05-25T13:37:37;93148.59;;;21.81;48.23
64402;BME280;50724;42.376;23.768;2023-05-25T13:40:37;93156.13;;;21.61;47.69
64402;BME280;50724;42.376;23.768;2023-05-25T13:43:38;93159.94;;;21.77;49.80
64402;BME280;50724;42.376;23.768;2023-05-25T13:46:38;93159.13;;;21.42;48.96
64402;BME280;50724;42.376;23.768;2023-05-25T13:49:39;93159.09;;;20.89;51.66
64402;BME280;50724;42.376;23.768;2023-05-25T13:52:39;93174.78;;;20.79;53.40
64402;BME280;50724;42.376;23.768;2023-05-25T13:55:39;93168.31;;;19.16;59.15
64402;BME280;50724;42.376;23.768;2023-05-25T13:58:40;93172.84;;;18.85;60.22
64402;BME280;50724;42.376;23.768;2023-05-25T14:01:41;93176.97;;;18.74;60.74
64402;BME280;50724;42.376;23.768;2023-05-25T14:04:41;93166.63;;;18.66;61.49
64402;BME280;50724;42.376;23.768;2023-05-25T14:07:50;93169.84;;;18.30;60.44
64402;BME280;50724;42.376;23.768;2023-05-25T14:10:51;93173.91;;;18.33;61.04
64402;BME280;50724;42.376;23.768;2023-05-25T14:13:51;93185.56;;;18.19;62.73
64402;BME280;50724;42.376;23.768;2023-05-25T14:16:52;93191.78;;;17.80;63.92
64402;BME280;50724;42.376;23.768;2023-05-25T14:19:52;93196.09;;;17.55;67.25
64402;BME280;50724;42.376;23.768;2023-05-25T14:22:53;93189.59;;;16.92;67.50
64402;BME280;50724;42.376;23.768;2023-05-25T14:25:53;93202.38;;;16.88;67.09
64402;BME280;50724;42.376;23.768;2023-05-25T14:28:54;93194.47;;;17.14;64.09
64402;BME280;50724;42.376;23.768;2023-05-25T14:31:54;93199.13;;;16.93;66.64
64402;BME280;50724;42.376;23.768;2023-05-25T14:34:55;93193.88;;;17.06;67.26
64402;BME280;50724;42.376;23.768;2023-05-25T14:37:55;93186.72;;;17.00;65.72
64402;BME280;50724;42.376;23.768;2023-05-25T14:40:55;93190.22;;;17.13;66.05
64402;BME280;50724;42.376;23.768;2023-05-25T14:43:56;93200.34;;;16.90;65.02
64402;BME280;50724;42.376;23.768;2023-05-25T14:46:56;93196.25;;;16.68;67.59
64402;BME280;50724;42.376;23.768;2023-05-25T14:49:57;93197.72;;;16.30;69.44
64402;BME280;50724;42.376;23.768;2023-05-25T14:52:57;93182.19;;;16.01;72.81
64402;BME280;50724;42.376;23.768;2023-05-25T14:55:57;93184.44;;;15.63;75.57
64402;BME280;50724;42.376;23.768;2023-05-25T14:58:58;93185.00;;;15.52;76.95
64402;BME280;50724;42.376;23.768;2023-05-25T15:01:58;93189.25;;;15.53;77.46
64402;BME280;50724;42.376;23.768;2023-05-25T15:04:59;93184.47;;;16.10;82.01
64402;BME280;50724;42.376;23.768;2023-05-25T15:07:59;93175.63;;;16.37;82.95
64402;BME280;50724;42.376;23.768;2023-05-25T15:10:59;93184.03;;;16.67;75.33
64402;BME280;50724;42.376;23.768;2023-05-25T15:14:00;93195.47;;;16.81;77.46
64402;BME280;50724;42.376;23.768;2023-05-25T15:17:01;93196.09;;;17.15;78.75
64402;BME280;50724;42.376;23.768;2023-05-25T15:20:01;93191.41;;;17.44;77.41
64402;BME280;50724;42.376;23.768;2023-05-25T15:23:02;93189.56;;;17.83;78.33
64402;BME280;50724;42.376;23.768;2023-05-25T15:26:02;93187.69;;;17.91;78.59
64402;BME280;50724;42.376;23.768;2023-05-25T15:29:03;93202.75;;;17.97;79.91
64402;BME280;50724;42.376;23.768;2023-05-25T15:32:04;93200.00;;;18.23;76.73
64402;BME280;50724;42.376;23.768;2023-05-25T15:35:05;93209.69;;;17.91;76.04
64402;BME280;50724;42.376;23.768;2023-05-25T15:38:13;93217.25;;;17.48;78.75
64402;BME280;50724;42.376;23.768;2023-05-25T15:41:14;93216.66;;;17.46;75.90
64402;BME280;50724;42.376;23.768;2023-05-25T15:44:17;93209.31;;;17.74;76.38
64402;BME280;50724;42.376;23.768;2023-05-25T15:47:18;93204.03;;;18.32;78.60
64402;BME280;50724;42.376;23.768;2023-05-25T15:50:18;93197.06;;;19.19;71.54
64402;BME280;50724;42.376;23.768;2023-05-25T15:53:19;93198.19;;;20.70;62.09
64402;BME280;50724;42.376;23.768;2023-05-25T15:56:19;93207.94;;;22.63;55.93